createdAt,value
2022-11-22T00:00:42.006Z,10.90
2022-11-22T00:03:09.505Z,20.33
2022-11-22T00:05:37.299Z,11.07
2022-11-22T00:08:04.978Z,13.10
2022-11-22T00:10:32.145Z,14.35
2022-11-22T00:12:59.296Z,12.13
2022-11-22T00:15:26.551Z,13.00
2022-11-22T00:17:53.571Z,14.30
2022-11-22T00:20:21.135Z,11.68
2022-11-22T00:22:49.035Z,14.85
2022-11-22T00:25:16.085Z,17.33
2022-11-22T00:27:43.345Z,11.15
2022-11-22T00:30:10.811Z,10.60
2022-11-22T00:32:37.849Z,11.55
2022-11-22T00:35:05.572Z,12.90
2022-11-22T00:37:32.615Z,10.50
2022-11-22T00:39:59.769Z,11.88
2022-11-22T00:42:26.770Z,10.85
2022-11-22T00:44:53.796Z,11.93
2022-11-22T00:47:20.846Z,14.50
2022-11-22T00:49:48.276Z,14.07
2022-11-22T00:52:15.319Z,15.65
2022-11-22T00:54:42.452Z,13.80
2022-11-22T00:57:09.515Z,14.30
2022-11-22T00:59:36.542Z,22.48
2022-11-22T01:02:03.618Z,15.45
2022-11-22T01:04:30.651Z,15.25
2022-11-22T01:06:57.719Z,14.48
2022-11-22T01:09:24.986Z,15.25
2022-11-22T01:11:52.507Z,13.52
2022-11-22T01:14:19.930Z,15.85
2022-11-22T01:16:47.553Z,16.50
2022-11-22T01:19:14.569Z,12.93
2022-11-22T01:21:41.661Z,10.25
2022-11-22T01:24:08.901Z,9.98
2022-11-22T01:26:35.973Z,18.60
2022-11-22T01:29:03.111Z,10.00
2022-11-22T01:31:30.306Z,10.43
2022-11-22T01:33:58.999Z,12.38
2022-11-22T01:36:27.068Z,9.73
2022-11-22T01:38:54.459Z,12.68
2022-11-22T01:41:21.497Z,11.00
2022-11-22T01:43:49.007Z,9.65
2022-11-22T01:46:21.564Z,10.10
2022-11-22T01:48:54.843Z,13.50
2022-11-22T01:51:37.665Z,10.68
2022-11-22T01:54:09.599Z,10.05
2022-11-22T01:56:38.251Z,8.35
2022-11-22T01:59:10.664Z,19.00
2022-11-22T02:01:38.234Z,13.25
2022-11-22T02:04:09.428Z,20.63
2022-11-22T02:07:11.483Z,12.60
2022-11-22T02:09:40.799Z,13.63
2022-11-22T02:12:09.903Z,14.85
2022-11-22T02:14:38.929Z,15.52
2022-11-22T02:17:06.185Z,14.45
2022-11-22T02:19:45.497Z,18.58
2022-11-22T02:22:29.937Z,14.73
2022-11-22T02:25:03.288Z,12.15
2022-11-22T02:27:30.394Z,13.55
2022-11-22T02:29:57.443Z,14.35
2022-11-22T02:32:24.792Z,10.10
2022-11-22T02:34:52.068Z,15.68
2022-11-22T02:37:24.307Z,15.07
2022-11-22T02:40:05.272Z,16.80
2022-11-22T02:42:34.116Z,15.43
2022-11-22T02:45:01.139Z,15.10
2022-11-22T02:47:28.149Z,16.58
2022-11-22T02:49:55.148Z,12.25
2022-11-22T02:52:22.294Z,15.23
2022-11-22T02:54:49.355Z,15.02
2022-11-22T02:57:16.417Z,12.70
2022-11-22T02:59:43.585Z,12.52
2022-11-22T03:02:10.798Z,10.25
2022-11-22T03:04:37.827Z,15.15
2022-11-22T03:07:04.955Z,11.95
2022-11-22T03:09:32.645Z,8.88
2022-11-22T03:12:00.101Z,16.08
2022-11-22T03:14:27.213Z,9.85
2022-11-22T03:16:54.547Z,14.15
2022-11-22T03:19:21.753Z,17.23
2022-11-22T03:21:49.199Z,12.32
2022-11-22T03:24:16.712Z,14.15
2022-11-22T03:26:48.755Z,8.10
2022-11-22T03:29:17.198Z,9.82
2022-11-22T03:31:44.203Z,13.05
2022-11-22T03:34:12.281Z,11.75
2022-11-22T03:36:39.249Z,14.93
2022-11-22T03:39:06.271Z,14.40
2022-11-22T03:41:33.236Z,9.57
2022-11-22T03:44:00.285Z,7.07
2022-11-22T03:46:27.323Z,8.45
2022-11-22T03:48:54.592Z,10.68
2022-11-22T03:51:21.708Z,16.15
2022-11-22T03:53:48.708Z,12.35
2022-11-22T03:56:15.676Z,12.52
2022-11-22T03:58:42.721Z,7.68
2022-11-22T04:01:14.979Z,10.15
2022-11-22T04:06:10.265Z,14.43
2022-11-22T04:08:37.362Z,11.00
2022-11-22T04:11:04.476Z,10.55
2022-11-22T04:14:00.962Z,13.07
2022-11-22T04:16:28.098Z,9.43
2022-11-22T04:18:55.103Z,12.85
2022-11-22T04:21:34.008Z,15.07
2022-11-22T04:24:25.417Z,8.45
2022-11-22T04:26:53.054Z,9.93
2022-11-22T04:29:21.143Z,12.07
2022-11-22T04:32:08.507Z,9.82
2022-11-22T04:34:36.331Z,8.88
2022-11-22T04:37:04.873Z,10.55
2022-11-22T04:39:32.390Z,16.15
2022-11-22T04:42:18.668Z,15.60
2022-11-22T04:44:46.308Z,13.93
2022-11-22T04:47:35.694Z,14.07
2022-11-22T04:50:24.842Z,13.15
2022-11-22T04:52:54.164Z,9.98
2022-11-22T04:55:21.945Z,11.55
2022-11-22T04:57:50.429Z,9.65
2022-11-22T05:00:19.259Z,14.60
2022-11-22T05:02:46.265Z,8.82
2022-11-22T05:05:13.414Z,10.32
2022-11-22T05:07:40.515Z,7.80
2022-11-22T05:10:08.170Z,5.60
2022-11-22T05:12:35.317Z,12.95
2022-11-22T05:15:02.403Z,10.73
2022-11-22T05:17:29.462Z,9.65
2022-11-22T05:19:56.483Z,15.00
2022-11-22T05:22:46.242Z,15.15
2022-11-22T05:25:13.293Z,7.28
2022-11-22T05:27:40.369Z,14.65
2022-11-22T05:30:08.021Z,6.72
2022-11-22T05:32:35.202Z,6.63
2022-11-22T05:35:02.375Z,9.40
2022-11-22T05:37:29.854Z,7.30
2022-11-22T05:39:56.887Z,9.45
2022-11-22T05:42:23.976Z,10.02
2022-11-22T05:44:51.000Z,10.18
2022-11-22T05:47:17.960Z,9.43
2022-11-22T05:49:46.061Z,5.07
2022-11-22T05:52:13.190Z,6.10
2022-11-22T05:54:40.221Z,12.63
2022-11-22T05:57:07.386Z,7.15
2022-11-22T05:59:34.458Z,8.25
2022-11-22T06:02:01.499Z,8.18
2022-11-22T06:04:28.586Z,7.25
2022-11-22T06:06:55.690Z,8.27
2022-11-22T06:09:22.955Z,9.75
2022-11-22T06:11:49.913Z,14.15
2022-11-22T06:14:16.982Z,5.30
2022-11-22T06:16:44.138Z,6.13
2022-11-22T06:19:11.353Z,6.82
2022-11-22T06:21:38.787Z,10.07
2022-11-22T06:24:06.311Z,7.20
2022-11-22T06:26:39.125Z,8.65
2022-11-22T06:29:06.833Z,13.70
2022-11-22T06:31:33.923Z,10.52
2022-11-22T06:34:01.164Z,8.20
2022-11-22T06:36:31.149Z,8.77
2022-11-22T06:38:58.308Z,6.45
2022-11-22T06:41:32.600Z,8.20
2022-11-22T06:43:59.631Z,7.18
2022-11-22T06:46:27.317Z,8.98
2022-11-22T06:48:54.445Z,10.35
2022-11-22T06:51:29.749Z,7.72
2022-11-22T06:53:57.776Z,6.28
2022-11-22T06:56:28.333Z,10.40
2022-11-22T06:58:55.624Z,6.70
2022-11-22T07:01:25.539Z,3.00
2022-11-22T07:03:58.353Z,7.13
2022-11-22T07:06:28.393Z,11.05
2022-11-22T07:08:55.576Z,5.97
2022-11-22T07:11:25.426Z,5.78
2022-11-22T07:13:54.125Z,5.95
2022-11-22T07:16:21.811Z,5.20
2022-11-22T07:18:49.428Z,11.32
2022-11-22T07:21:20.223Z,6.32
2022-11-22T07:23:49.103Z,4.70
2022-11-22T07:26:17.784Z,7.03
2022-11-22T07:28:45.682Z,5.35
2022-11-22T07:31:14.463Z,13.13
2022-11-22T07:33:42.274Z,9.20
2022-11-22T07:36:11.633Z,4.80
2022-11-22T07:38:38.855Z,6.78
2022-11-22T07:41:06.770Z,7.18
2022-11-22T07:43:34.262Z,7.60
2022-11-22T07:46:02.960Z,5.20
2022-11-22T07:48:29.997Z,4.53
2022-11-22T07:50:57.168Z,3.67
2022-11-22T07:53:24.250Z,6.70
2022-11-22T07:55:51.274Z,6.82
2022-11-22T07:58:18.342Z,7.88
2022-11-22T08:00:45.340Z,6.18
2022-11-22T08:03:17.221Z,9.65
2022-11-22T08:05:46.348Z,4.90
2022-11-22T08:08:13.463Z,5.07
2022-11-22T08:10:40.443Z,7.05
2022-11-22T08:13:07.520Z,5.15
2022-11-22T08:15:34.739Z,7.68
2022-11-22T08:18:01.808Z,8.40
2022-11-22T08:20:28.857Z,4.75
2022-11-22T08:22:56.077Z,12.38
2022-11-22T08:25:23.121Z,8.45
2022-11-22T08:27:50.078Z,10.48
2022-11-22T08:30:17.085Z,6.85
2022-11-22T08:32:44.167Z,6.55
2022-11-22T08:35:11.208Z,5.75
2022-11-22T08:37:38.344Z,5.10
2022-11-22T08:40:06.272Z,11.23
2022-11-22T08:42:33.265Z,6.88
2022-11-22T08:45:00.318Z,9.55
2022-11-22T08:47:27.444Z,6.95
2022-11-22T08:49:54.462Z,6.38
2022-11-22T08:52:21.465Z,4.57
2022-11-22T08:54:48.514Z,5.72
2022-11-22T08:57:15.661Z,4.13
2022-11-22T08:59:42.801Z,9.20
2022-11-22T09:02:10.721Z,7.60
2022-11-22T09:04:37.829Z,8.18
2022-11-22T09:09:51.965Z,3.58
2022-11-22T09:12:19.341Z,4.05
2022-11-22T09:14:46.483Z,4.55
2022-11-22T09:17:17.764Z,6.53
2022-11-22T09:19:45.357Z,5.68
2022-11-22T09:22:12.427Z,8.43
2022-11-22T09:24:39.476Z,4.70
2022-11-22T09:27:06.644Z,8.90
2022-11-22T09:29:34.383Z,5.70
2022-11-22T09:32:01.506Z,5.40
2022-11-22T09:34:28.535Z,7.10
2022-11-22T09:36:56.048Z,3.70
2022-11-22T09:39:23.147Z,3.80
2022-11-22T09:42:12.797Z,4.53
2022-11-22T09:44:58.288Z,10.90
2022-11-22T09:47:48.133Z,4.80
2022-11-22T09:50:30.329Z,3.83
2022-11-22T09:53:04.674Z,8.55
2022-11-22T09:55:45.696Z,12.82
2022-11-22T09:58:30.929Z,6.75
2022-11-22T10:01:19.597Z,8.27
2022-11-22T10:04:01.406Z,7.32
2022-11-22T10:06:38.532Z,3.60
2022-11-22T10:09:27.852Z,3.88
2022-11-22T10:12:00.307Z,3.67
2022-11-22T10:14:36.571Z,5.15
2022-11-22T10:17:15.799Z,9.82
2022-11-22T10:19:56.360Z,4.00
2022-11-22T10:22:25.101Z,10.32
2022-11-22T10:24:52.155Z,7.50
2022-11-22T10:27:19.225Z,4.28
2022-11-22T10:30:02.832Z,2.17
2022-11-22T10:32:48.116Z,6.22
2022-11-22T10:35:30.148Z,5.72
2022-11-22T10:38:32.249Z,5.22
2022-11-22T10:41:18.030Z,7.32
2022-11-22T10:43:51.101Z,6.72
2022-11-22T10:46:40.660Z,5.70
2022-11-22T10:49:16.372Z,5.53
2022-11-22T10:52:21.712Z,9.43
2022-11-22T10:55:19.530Z,3.30
2022-11-22T10:58:01.883Z,5.15
2022-11-22T11:00:33.079Z,12.52
2022-11-22T11:03:11.857Z,4.97
2022-11-22T11:06:22.334Z,7.97
2022-11-22T11:09:36.100Z,5.80
2022-11-22T11:11:34.625Z,5.60
2022-11-22T11:14:28.047Z,9.05
2022-11-22T11:16:55.799Z,6.03
2022-11-22T11:19:30.075Z,4.68
2022-11-22T11:22:08.140Z,4.38
2022-11-22T11:24:39.913Z,4.85
2022-11-22T11:27:09.273Z,3.45
2022-11-22T11:29:47.964Z,4.05
2022-11-22T11:32:17.942Z,6.68
2022-11-22T11:35:01.383Z,9.75
2022-11-22T11:37:37.339Z,8.70
2022-11-22T11:40:05.765Z,4.18
2022-11-22T11:42:34.679Z,6.40
2022-11-22T11:45:27.257Z,3.05
2022-11-22T11:47:54.511Z,3.45
2022-11-22T11:50:24.948Z,2.78
2022-11-22T11:53:02.213Z,2.88
2022-11-22T11:55:37.150Z,5.38
2022-11-22T11:58:18.015Z,5.53
2022-11-22T12:00:45.594Z,4.47
2022-11-22T12:03:17.045Z,3.83
2022-11-22T12:05:44.289Z,5.45
2022-11-22T12:08:32.119Z,2.35
2022-11-22T12:11:14.451Z,3.63
2022-11-22T12:14:20.807Z,5.30
2022-11-22T12:16:46.505Z,4.45
2022-11-22T12:19:41.099Z,4.45
2022-11-22T12:22:42.694Z,3.08
2022-11-22T12:25:36.380Z,6.45
2022-11-22T12:28:18.425Z,2.83
2022-11-22T12:30:52.433Z,4.22
2022-11-22T12:33:24.669Z,3.28
2022-11-22T12:35:54.499Z,2.45
2022-11-22T12:38:27.855Z,5.10
2022-11-22T12:40:58.309Z,3.03
2022-11-22T12:43:44.740Z,2.75
2022-11-22T12:46:26.004Z,2.08
2022-11-22T12:48:58.671Z,8.60
2022-11-22T12:51:56.246Z,2.20
2022-11-22T12:54:37.112Z,2.42
2022-11-22T12:57:54.016Z,4.20
2022-11-22T13:00:27.231Z,2.55
2022-11-22T13:03:07.432Z,2.88
2022-11-22T13:05:40.765Z,1.73
2022-11-22T13:08:19.171Z,1.65
2022-11-22T13:10:55.077Z,1.20
2022-11-22T13:13:29.468Z,2.65
2022-11-22T13:16:00.174Z,2.03
2022-11-22T13:18:33.037Z,1.83
2022-11-22T13:21:19.751Z,1.70
2022-11-22T13:24:08.621Z,2.17
2022-11-22T13:26:48.652Z,1.42
2022-11-22T13:29:27.836Z,1.73
2022-11-22T13:32:13.584Z,2.58
2022-11-22T13:35:00.103Z,3.88
2022-11-22T13:37:30.281Z,2.42
2022-11-22T13:40:10.090Z,1.33
2022-11-22T13:42:37.391Z,6.03
2022-11-22T13:45:24.646Z,2.22
2022-11-22T13:47:52.272Z,4.10
2022-11-22T13:50:58.228Z,2.15
2022-11-22T13:53:33.805Z,0.98
2022-11-22T13:56:15.941Z,2.72
2022-11-22T13:59:02.593Z,0.98
2022-11-22T14:01:35.795Z,1.92
2022-11-22T14:04:24.700Z,1.88
2022-11-22T14:07:09.854Z,2.13
2022-11-22T14:09:51.047Z,2.47
2022-11-22T14:12:41.504Z,0.88
2022-11-22T14:15:17.281Z,3.03
2022-11-22T14:17:55.184Z,1.33
2022-11-22T14:21:26.510Z,3.65
2022-11-22T14:24:08.908Z,2.67
2022-11-22T14:26:41.703Z,1.85
2022-11-22T14:29:31.044Z,3.13
2022-11-22T14:32:03.887Z,0.70
2022-11-22T14:34:31.693Z,1.97
2022-11-22T14:37:10.855Z,0.95
2022-11-22T14:39:51.774Z,3.42
2022-11-22T14:42:49.042Z,2.15
2022-11-22T14:45:22.984Z,1.08
2022-11-22T14:48:01.433Z,5.18
2022-11-22T14:50:33.810Z,1.55
2022-11-22T14:53:28.112Z,2.10
2022-11-22T14:58:56.774Z,1.83
2022-11-22T15:01:52.379Z,8.30
2022-11-22T15:09:12.945Z,1.77
2022-11-22T15:09:23.877Z,1.10
2022-11-22T15:10:59.928Z,1.20
2022-11-22T15:14:02.696Z,0.90
2022-11-22T15:57:19.400Z,5.00
2022-11-22T15:59:54.571Z,7.30
2022-11-22T16:02:25.301Z,2.42
2022-11-22T16:06:09.914Z,5.75
2022-11-22T16:07:55.380Z,5.07
2022-11-22T16:10:24.142Z,2.50
2022-11-22T16:12:52.489Z,1.35
2022-11-22T16:15:36.049Z,1.08
2022-11-22T16:18:24.526Z,2.67
2022-11-22T16:21:19.448Z,2.75
2022-11-22T16:23:47.012Z,3.80
2022-11-22T16:26:29.521Z,4.15
2022-11-22T16:29:26.102Z,3.03
2022-11-22T16:32:01.412Z,2.50
2022-11-22T16:34:28.523Z,2.60
2022-11-22T16:36:56.091Z,3.63
2022-11-22T16:39:24.191Z,2.72
2022-11-22T16:41:51.293Z,2.10
2022-11-22T16:44:19.757Z,2.47
2022-11-22T16:46:49.817Z,6.03
2022-11-22T16:49:19.631Z,2.83
2022-11-22T16:51:48.866Z,1.45
2022-11-22T16:54:24.146Z,4.03
2022-11-22T16:56:51.162Z,2.85
2022-11-22T16:59:18.229Z,1.58
2022-11-22T17:01:45.299Z,2.17
2022-11-22T17:04:21.918Z,2.13
2022-11-22T17:06:49.997Z,1.45
2022-11-22T17:09:17.158Z,1.38
2022-11-22T17:11:44.951Z,4.53
2022-11-22T17:14:16.626Z,1.92
2022-11-22T17:16:45.813Z,3.15
2022-11-22T17:22:00.973Z,1.85
2022-11-22T17:24:29.095Z,2.55
2022-11-22T17:26:57.102Z,3.25
2022-11-22T17:32:13.161Z,2.72
2022-11-22T17:34:40.393Z,4.45
2022-11-22T17:37:12.216Z,6.32
2022-11-22T17:39:39.717Z,4.43
2022-11-22T17:42:06.767Z,6.43
2022-11-22T17:44:34.241Z,4.47
2022-11-22T17:47:01.275Z,6.28
2022-11-22T17:49:29.020Z,5.82
2022-11-22T17:51:56.341Z,6.80
2022-11-22T17:54:23.427Z,6.30
2022-11-22T17:56:50.593Z,6.68
2022-11-22T17:59:19.509Z,21.20
2022-11-22T18:01:46.582Z,19.65
2022-11-22T18:04:14.635Z,10.48
2022-11-22T18:06:41.765Z,8.50
2022-11-22T18:09:09.072Z,7.07
2022-11-22T18:11:36.084Z,6.10
2022-11-22T18:14:03.186Z,7.35
2022-11-22T18:16:31.424Z,6.00
2022-11-22T18:19:00.416Z,7.05
2022-11-22T18:21:29.515Z,6.40
2022-11-22T18:24:00.325Z,5.45
2022-11-22T18:26:43.391Z,6.57
2022-11-22T18:32:00.773Z,5.78
2022-11-22T18:34:28.652Z,9.27
2022-11-22T18:37:00.796Z,6.13
2022-11-22T18:39:34.721Z,5.85
2022-11-22T18:42:02.891Z,5.63
2022-11-22T18:44:29.920Z,6.93
2022-11-22T18:46:57.470Z,10.02
2022-11-22T18:49:24.542Z,15.32
2022-11-22T18:51:51.930Z,10.18
2022-11-22T18:54:20.120Z,8.75
2022-11-22T18:56:47.215Z,20.45
2022-11-22T18:59:14.439Z,17.98
2022-11-22T19:01:41.663Z,9.30
2022-11-22T19:04:12.984Z,10.75
2022-11-22T19:06:40.748Z,18.27
2022-11-22T19:09:08.669Z,16.85
2022-11-22T19:11:35.905Z,11.18
2022-11-22T19:14:07.258Z,14.30
2022-11-22T19:16:34.704Z,6.18
2022-11-22T19:19:01.773Z,6.60
2022-11-22T19:21:29.842Z,7.20
2022-11-22T19:23:57.714Z,5.68
2022-11-22T19:26:27.584Z,4.63
2022-11-22T19:28:58.064Z,5.30
2022-11-22T19:31:28.794Z,4.22
2022-11-22T19:33:56.365Z,7.93
2022-11-22T19:36:32.199Z,5.22
2022-11-22T19:39:02.087Z,5.53
2022-11-22T19:41:29.303Z,5.78
2022-11-22T19:43:59.974Z,6.63
2022-11-22T19:46:27.795Z,9.38
2022-11-22T19:48:57.485Z,5.03
2022-11-22T19:51:26.380Z,6.60
2022-11-22T19:53:57.284Z,5.72
2022-11-22T19:56:27.319Z,5.03
2022-11-22T19:58:54.838Z,6.50
2022-11-22T20:01:23.727Z,8.52
2022-11-22T20:03:55.814Z,6.60
2022-11-22T20:06:24.207Z,7.78
2022-11-22T20:08:51.299Z,5.32
2022-11-22T20:11:20.565Z,7.22
2022-11-22T20:13:51.451Z,8.18
2022-11-22T20:16:22.303Z,5.25
2022-11-22T20:18:57.492Z,7.10
2022-11-22T20:21:27.130Z,5.85
2022-11-22T20:23:55.254Z,6.38
2022-11-22T20:26:23.239Z,8.60
2022-11-22T20:28:58.874Z,10.00
2022-11-22T20:31:27.994Z,12.50
2022-11-22T20:33:55.363Z,7.72
2022-11-22T20:36:29.012Z,8.30
2022-11-22T20:38:57.555Z,11.45
2022-11-22T20:41:27.566Z,10.98
2022-11-22T20:43:55.448Z,7.75
2022-11-22T20:46:25.033Z,17.85
2022-11-22T20:48:53.493Z,9.02
2022-11-22T20:51:26.284Z,13.73
2022-11-22T20:53:54.455Z,9.73
2022-11-22T20:56:21.796Z,11.48
2022-11-22T20:58:49.688Z,9.02
2022-11-22T21:01:25.262Z,11.82
2022-11-22T21:03:53.422Z,10.20
2022-11-22T21:06:22.136Z,12.13
2022-11-22T21:08:49.815Z,13.20
2022-11-22T21:11:18.547Z,9.63
2022-11-22T21:13:47.171Z,8.82
2022-11-22T21:16:23.255Z,7.45
2022-11-22T21:19:01.599Z,15.95
2022-11-22T21:21:29.965Z,8.48
2022-11-22T21:23:59.973Z,12.90
2022-11-22T21:26:27.492Z,8.38
2022-11-22T21:28:54.967Z,9.82
2022-11-22T21:31:22.807Z,7.00
2022-11-22T21:33:50.239Z,13.15
2022-11-22T21:36:18.165Z,11.35
2022-11-22T21:38:45.457Z,11.13
2022-11-22T21:44:02.013Z,12.77
2022-11-22T21:46:29.137Z,8.50
2022-11-22T21:48:56.548Z,7.68
2022-11-22T21:51:26.065Z,6.63
2022-11-22T21:54:01.120Z,8.45
2022-11-22T21:56:28.827Z,10.65
2022-11-22T21:58:56.581Z,10.35
2022-11-22T22:01:24.510Z,11.43
2022-11-22T22:03:51.821Z,15.07
2022-11-22T22:06:20.002Z,17.52
2022-11-22T22:08:47.094Z,11.43
2022-11-22T22:11:14.367Z,9.90
2022-11-22T22:13:41.448Z,9.75
2022-11-22T22:16:15.250Z,9.95
2022-11-22T22:21:12.154Z,7.20
2022-11-22T22:23:40.497Z,11.30
2022-11-22T22:26:09.880Z,12.88
2022-11-22T22:28:38.357Z,10.88
2022-11-22T22:31:21.330Z,7.05
2022-11-22T22:33:56.262Z,8.60
2022-11-22T22:36:27.329Z,9.38
2022-11-22T22:38:55.045Z,8.60
2022-11-22T22:41:22.493Z,8.23
2022-11-22T22:43:49.952Z,8.93
2022-11-22T22:46:22.563Z,11.13
2022-11-22T22:48:52.167Z,11.43
2022-11-22T22:51:21.686Z,13.15
2022-11-22T22:53:49.499Z,9.75
2022-11-22T22:56:20.232Z,10.35
2022-11-22T22:58:47.967Z,10.30
2022-11-22T23:01:20.386Z,10.80
2022-11-22T23:03:53.245Z,11.07
2022-11-22T23:06:22.150Z,12.10
2022-11-22T23:08:50.747Z,14.30
2022-11-22T23:11:23.217Z,12.70
2022-11-22T23:13:50.223Z,10.95
2022-11-22T23:16:17.324Z,13.20
2022-11-22T23:18:45.329Z,13.43
2022-11-22T23:21:14.203Z,9.10
2022-11-22T23:23:41.224Z,15.23
2022-11-22T23:26:11.496Z,9.90
2022-11-22T23:28:38.829Z,13.85
2022-11-22T23:31:08.249Z,12.52
2022-11-22T23:33:36.376Z,13.88
2022-11-22T23:36:05.659Z,15.95
2022-11-22T23:38:32.926Z,11.98
2022-11-22T23:41:00.467Z,14.63
2022-11-22T23:43:27.902Z,13.25
2022-11-22T23:45:55.146Z,15.10
2022-11-22T23:48:22.129Z,13.75
2022-11-22T23:50:49.505Z,21.42
2022-11-22T23:53:16.566Z,17.70
2022-11-22T23:55:43.686Z,17.73
2022-11-22T23:58:10.785Z,24.00
